Time;durP1;ratioP1;P1;durP2;ratioP2;P2;SDS_P1;SDS_P2;PMS_P1;PMS_P2;Temp;Humidity;BMP_temperature;BMP_pressure;BME280_temperature;BME280_humidity;BME280_pressure;Samples;Min_cycle;Max_cycle;Signal;HPM_P1;HPM_P2
2023/09/08 00:00:59;;;;;;;10.68;8.20;;;;;;;;;;5092231;28;20047;-65
2023/09/08 00:03:25;;;;;;;10.07;7.95;;;;;;;;;;5092583;28;20040;-65
2023/09/08 00:05:51;;;;;;;12.30;7.85;;;;;;;;;;5092616;28;20085;-66
2023/09/08 00:08:17;;;;;;;13.05;8.02;;;;;;;;;;5092952;28;20131;-66
2023/09/08 00:10:43;;;;;;;8.50;7.60;;;;;;;;;;5092118;28;20044;-66
2023/09/08 00:13:09;;;;;;;11.98;8.20;;;;;;;;;;5092493;28;20044;-66
2023/09/08 00:15:35;;;;;;;9.70;7.47;;;;;;;;;;5091697;28;20063;-66
2023/09/08 00:18:01;;;;;;;12.48;7.85;;;;;;;;;;5077333;28;20043;-66
2023/09/08 00:20:27;;;;;;;9.48;7.57;;;;;;;;;;5092622;28;20071;-66
2023/09/08 00:22:53;;;;;;;10.10;7.68;;;;;;;;;;5092509;28;20082;-66
2023/09/08 00:25:19;;;;;;;8.70;7.50;;;;;;;;;;5092133;28;20043;-66
2023/09/08 00:27:45;;;;;;;8.30;7.50;;;;;;;;;;5091543;28;20035;-66
2023/09/08 00:30:12;;;;;;;9.70;7.00;;;;;;;;;;5092070;28;20418;-66
2023/09/08 00:32:38;;;;;;;10.57;7.97;;;;;;;;;;5091641;28;20044;-66
2023/09/08 00:35:07;;;;;;;9.73;7.80;;;;;;;;;;5092261;28;20549;-66
2023/09/08 00:37:33;;;;;;;9.70;7.28;;;;;;;;;;5072052;28;20044;-66
2023/09/08 00:39:59;;;;;;;10.60;7.90;;;;;;;;;;5075347;28;20076;-66
2023/09/08 00:42:25;;;;;;;8.75;7.75;;;;;;;;;;5092250;28;20044;-66
2023/09/08 00:44:51;;;;;;;10.73;7.47;;;;;;;;;;5091920;28;20035;-66
2023/09/08 00:47:17;;;;;;;9.15;7.07;;;;;;;;;;5091888;28;20044;-66
2023/09/08 00:49:43;;;;;;;10.82;7.78;;;;;;;;;;5091788;28;20101;-66
2023/09/08 00:52:09;;;;;;;12.02;7.90;;;;;;;;;;5092083;28;20047;-66
2023/09/08 00:54:35;;;;;;;10.50;7.72;;;;;;;;;;5091375;28;20429;-66
2023/09/08 00:57:05;;;;;;;10.48;7.70;;;;;;;;;;5091830;28;20039;-66
2023/09/08 00:59:35;;;;;;;10.80;7.78;;;;;;;;;;5091596;28;20047;-66
2023/09/08 01:02:02;;;;;;;8.95;8.02;;;;;;;;;;5090879;28;20043;-66
2023/09/08 01:04:28;;;;;;;9.35;8.20;;;;;;;;;;5091891;28;20032;-66
2023/09/08 01:06:55;;;;;;;8.95;7.75;;;;;;;;;;5091702;28;20044;-66
2023/09/08 01:09:21;;;;;;;9.60;7.78;;;;;;;;;;5091160;28;20054;-65
2023/09/08 01:11:47;;;;;;;10.55;8.07;;;;;;;;;;5091230;28;20039;-65
2023/09/08 01:14:13;;;;;;;10.15;8.07;;;;;;;;;;5091874;28;20047;-65
2023/09/08 01:16:42;;;;;;;10.18;8.32;;;;;;;;;;5081142;28;20113;-65
2023/09/08 01:19:11;;;;;;;14.55;8.52;;;;;;;;;;5071450;28;20137;-65
2023/09/08 01:21:43;;;;;;;10.40;7.68;;;;;;;;;;5090086;28;20036;-65
2023/09/08 01:24:21;;;;;;;11.70;8.25;;;;;;;;;;5090975;28;20032;-65
2023/09/08 01:26:48;;;;;;;8.68;7.78;;;;;;;;;;5091787;28;20055;-65
2023/09/08 01:29:16;;;;;;;10.65;7.60;;;;;;;;;;5089585;28;20150;-65
2023/09/08 01:31:42;;;;;;;9.10;8.20;;;;;;;;;;5091357;28;20594;-65
2023/09/08 01:34:09;;;;;;;10.90;8.15;;;;;;;;;;5090971;28;20119;-65
2023/09/08 01:36:35;;;;;;;11.38;8.18;;;;;;;;;;5091776;28;20040;-65
2023/09/08 01:39:04;;;;;;;12.05;8.10;;;;;;;;;;5092067;28;20493;-65
2023/09/08 01:41:32;;;;;;;10.35;7.45;;;;;;;;;;5095499;28;20136;-65
2023/09/08 01:43:58;;;;;;;10.00;8.40;;;;;;;;;;5095752;28;20101;-65
2023/09/08 01:46:24;;;;;;;10.55;8.27;;;;;;;;;;5093738;28;20066;-65
2023/09/08 01:48:50;;;;;;;10.77;8.40;;;;;;;;;;5095654;28;20370;-65
2023/09/08 01:51:16;;;;;;;10.35;8.45;;;;;;;;;;5094940;28;20120;-65
2023/09/08 01:53:42;;;;;;;10.60;7.95;;;;;;;;;;5095049;28;20047;-65
2023/09/08 01:56:08;;;;;;;12.57;8.27;;;;;;;;;;5095280;28;20094;-65
2023/09/08 01:58:34;;;;;;;12.27;8.80;;;;;;;;;;5095134;28;20098;-65
2023/09/08 02:01:05;;;;;;;11.30;8.52;;;;;;;;;;5094645;28;20039;-65
2023/09/08 02:03:32;;;;;;;10.88;8.43;;;;;;;;;;5095579;28;20040;-65
2023/09/08 02:05:58;;;;;;;13.75;9.07;;;;;;;;;;5095067;28;20040;-65
2023/09/08 02:08:24;;;;;;;9.52;8.52;;;;;;;;;;5094515;28;20040;-65
2023/09/08 02:10:50;;;;;;;12.75;9.13;;;;;;;;;;5095096;28;20040;-65
2023/09/08 02:13:16;;;;;;;11.38;8.65;;;;;;;;;;5094554;28;20040;-65
2023/09/08 02:15:42;;;;;;;9.82;8.40;;;;;;;;;;5092297;28;20071;-65
2023/09/08 02:18:09;;;;;;;9.63;8.15;;;;;;;;;;5084347;28;20039;-65
2023/09/08 02:20:35;;;;;;;11.27;8.05;;;;;;;;;;5094926;28;20040;-65
2023/09/08 02:23:04;;;;;;;13.45;8.52;;;;;;;;;;5094399;28;20513;-65
2023/09/08 02:25:30;;;;;;;11.20;8.73;;;;;;;;;;5095084;28;20063;-65
2023/09/08 02:27:57;;;;;;;10.45;8.18;;;;;;;;;;5094558;28;20036;-65
2023/09/08 02:30:22;;;;;;;10.38;8.32;;;;;;;;;;5093777;28;20135;-65
2023/09/08 02:32:48;;;;;;;13.15;8.85;;;;;;;;;;5094591;28;20127;-65
2023/09/08 02:35:14;;;;;;;13.65;9.10;;;;;;;;;;5094396;28;20047;-66
2023/09/08 02:37:41;;;;;;;10.48;8.82;;;;;;;;;;5094382;28;20043;-66
2023/09/08 02:40:07;;;;;;;11.68;9.68;;;;;;;;;;5094192;28;20071;-66
2023/09/08 02:42:33;;;;;;;11.98;9.50;;;;;;;;;;5094432;28;20044;-66
2023/09/08 02:44:59;;;;;;;13.48;8.63;;;;;;;;;;5093833;28;20040;-66
2023/09/08 02:47:25;;;;;;;15.00;10.18;;;;;;;;;;5093395;28;20043;-66
2023/09/08 02:49:51;;;;;;;12.30;9.00;;;;;;;;;;5093665;28;20047;-66
2023/09/08 02:52:19;;;;;;;11.88;8.75;;;;;;;;;;5093918;28;20042;-66
2023/09/08 02:54:45;;;;;;;10.50;8.73;;;;;;;;;;5093884;28;20508;-66
2023/09/08 02:57:11;;;;;;;10.63;8.85;;;;;;;;;;5093954;28;20134;-66
2023/09/08 02:59:37;;;;;;;13.38;9.55;;;;;;;;;;5093859;28;20040;-66
2023/09/08 03:02:04;;;;;;;12.18;8.93;;;;;;;;;;5093936;28;20506;-66
2023/09/08 03:04:30;;;;;;;13.30;8.85;;;;;;;;;;5094235;28;20044;-65
2023/09/08 03:06:56;;;;;;;11.75;8.70;;;;;;;;;;5093381;28;20369;-65
2023/09/08 03:09:22;;;;;;;13.90;9.07;;;;;;;;;;5093781;28;20083;-65
2023/09/08 03:11:48;;;;;;;11.70;9.38;;;;;;;;;;5086275;28;20540;-65
2023/09/08 03:14:14;;;;;;;11.80;9.20;;;;;;;;;;5073089;28;20094;-66
2023/09/08 03:16:40;;;;;;;12.57;9.82;;;;;;;;;;5081149;28;20398;-66
2023/09/08 03:19:06;;;;;;;10.30;8.77;;;;;;;;;;5074248;28;20040;-66
2023/09/08 03:21:32;;;;;;;15.40;10.35;;;;;;;;;;5093126;28;20039;-66
2023/09/08 03:23:58;;;;;;;13.30;9.95;;;;;;;;;;5093147;28;20127;-66
2023/09/08 03:26:24;;;;;;;11.65;9.50;;;;;;;;;;5093801;28;20115;-66
2023/09/08 03:28:50;;;;;;;14.35;9.02;;;;;;;;;;5092993;28;20047;-65
2023/09/08 03:31:16;;;;;;;10.77;9.63;;;;;;;;;;5091965;28;20144;-65
2023/09/08 03:33:42;;;;;;;10.48;9.13;;;;;;;;;;5093357;28;20398;-65
2023/09/08 03:36:08;;;;;;;14.13;9.68;;;;;;;;;;5092959;28;20082;-65
2023/09/08 03:38:36;;;;;;;12.50;9.45;;;;;;;;;;5093064;28;20352;-65
2023/09/08 03:41:03;;;;;;;11.23;10.00;;;;;;;;;;5093328;28;20068;-65
2023/09/08 03:43:29;;;;;;;12.73;10.07;;;;;;;;;;5092696;28;20391;-65
2023/09/08 03:45:55;;;;;;;10.93;9.38;;;;;;;;;;5093079;28;20055;-65
2023/09/08 03:48:21;;;;;;;13.27;9.95;;;;;;;;;;5093330;28;20036;-65
2023/09/08 03:50:47;;;;;;;15.38;10.43;;;;;;;;;;5092721;28;20031;-65
2023/09/08 03:53:13;;;;;;;12.20;10.00;;;;;;;;;;5093077;28;20036;-65
2023/09/08 03:55:39;;;;;;;12.02;10.32;;;;;;;;;;5092951;28;20043;-65
2023/09/08 03:58:06;;;;;;;15.48;10.32;;;;;;;;;;5093150;28;20472;-65
2023/09/08 04:00:32;;;;;;;12.30;10.30;;;;;;;;;;5091984;28;20044;-65
2023/09/08 04:02:58;;;;;;;12.13;10.15;;;;;;;;;;5090952;28;20545;-65
2023/09/08 04:05:24;;;;;;;12.45;9.75;;;;;;;;;;5092594;28;20043;-65
2023/09/08 04:07:50;;;;;;;13.27;10.45;;;;;;;;;;5092332;28;20058;-65
2023/09/08 04:10:16;;;;;;;18.00;10.23;;;;;;;;;;5092766;28;20115;-65
2023/09/08 04:12:42;;;;;;;13.30;9.70;;;;;;;;;;5092089;28;20051;-65
2023/09/08 04:15:08;;;;;;;14.73;10.93;;;;;;;;;;5092371;28;20071;-65
2023/09/08 04:17:35;;;;;;;12.90;10.40;;;;;;;;;;5083053;28;20388;-65
2023/09/08 04:20:04;;;;;;;11.95;10.55;;;;;;;;;;5092415;28;20048;-65
2023/09/08 04:22:30;;;;;;;14.52;11.48;;;;;;;;;;5091475;28;20052;-65
2023/09/08 04:24:57;;;;;;;13.45;10.52;;;;;;;;;;5092566;28;20059;-65
2023/09/08 04:27:23;;;;;;;11.63;10.27;;;;;;;;;;5092228;28;20113;-65
2023/09/08 04:29:49;;;;;;;13.48;11.35;;;;;;;;;;5092023;28;20505;-66
2023/09/08 04:32:15;;;;;;;14.05;11.20;;;;;;;;;;5091968;28;20128;-66
2023/09/08 04:34:42;;;;;;;13.60;11.07;;;;;;;;;;5092093;28;20044;-66
2023/09/08 04:37:08;;;;;;;15.93;11.25;;;;;;;;;;5092021;28;20040;-66
2023/09/08 04:39:34;;;;;;;13.13;11.27;;;;;;;;;;5091853;28;20637;-66
2023/09/08 04:42:01;;;;;;;13.52;11.50;;;;;;;;;;5092064;28;20106;-66
2023/09/08 04:44:27;;;;;;;15.10;11.82;;;;;;;;;;5091651;28;20039;-66
2023/09/08 04:46:53;;;;;;;14.07;11.70;;;;;;;;;;5092247;28;20093;-66
2023/09/08 04:49:19;;;;;;;14.63;11.85;;;;;;;;;;5091916;28;20032;-66
2023/09/08 04:51:45;;;;;;;15.20;11.77;;;;;;;;;;5091710;28;20364;-66
2023/09/08 04:54:11;;;;;;;14.65;11.75;;;;;;;;;;5091798;28;20151;-66
2023/09/08 04:56:39;;;;;;;16.75;12.15;;;;;;;;;;5091752;28;20587;-66
2023/09/08 04:59:06;;;;;;;13.23;10.73;;;;;;;;;;5091506;28;20047;-66
2023/09/08 05:01:32;;;;;;;13.57;11.50;;;;;;;;;;5091644;28;20036;-66
2023/09/08 05:04:02;;;;;;;14.20;11.13;;;;;;;;;;5092044;28;20093;-66
2023/09/08 05:06:28;;;;;;;13.98;11.43;;;;;;;;;;5091062;28;20109;-66
2023/09/08 05:08:54;;;;;;;14.40;11.82;;;;;;;;;;5091962;28;20040;-66
2023/09/08 05:11:20;;;;;;;14.60;11.48;;;;;;;;;;5091474;28;20071;-66
2023/09/08 05:13:47;;;;;;;13.70;11.93;;;;;;;;;;5091545;28;20090;-66
2023/09/08 05:16:13;;;;;;;14.90;11.80;;;;;;;;;;5085428;28;20036;-66
2023/09/08 05:18:39;;;;;;;14.20;11.48;;;;;;;;;;5073894;28;20056;-66
2023/09/08 05:21:05;;;;;;;15.65;11.60;;;;;;;;;;5089958;28;20043;-66
2023/09/08 05:23:31;;;;;;;15.43;12.02;;;;;;;;;;5091532;28;20032;-65
2023/09/08 05:25:57;;;;;;;15.45;12.07;;;;;;;;;;5091459;28;20044;-65
2023/09/08 05:28:23;;;;;;;15.20;11.57;;;;;;;;;;5090927;28;20040;-65
2023/09/08 05:30:53;;;;;;;16.73;12.15;;;;;;;;;;5091466;28;20113;-65
2023/09/08 05:33:19;;;;;;;14.50;11.75;;;;;;;;;;5091475;28;20032;-65
2023/09/08 05:35:45;;;;;;;17.25;12.25;;;;;;;;;;5090909;28;20410;-65
2023/09/08 05:38:11;;;;;;;17.25;12.23;;;;;;;;;;5091057;28;20116;-65
2023/09/08 05:40:37;;;;;;;14.50;11.60;;;;;;;;;;5084587;28;20040;-63
2023/09/08 05:43:04;;;;;;;16.83;12.98;;;;;;;;;;5088703;28;20052;-64
2023/09/08 05:45:32;;;;;;;15.18;12.07;;;;;;;;;;5091498;28;20036;-64
2023/09/08 05:47:58;;;;;;;16.45;12.60;;;;;;;;;;5090888;28;20047;-64
2023/09/08 05:50:24;;;;;;;17.60;12.63;;;;;;;;;;5090114;28;20378;-65
2023/09/08 05:52:50;;;;;;;15.77;12.30;;;;;;;;;;5091249;28;20043;-64
2023/09/08 05:55:16;;;;;;;15.82;12.63;;;;;;;;;;5090834;28;20040;-65
2023/09/08 05:57:42;;;;;;;13.57;12.02;;;;;;;;;;5090565;28;20397;-64
2023/09/08 06:00:08;;;;;;;14.55;11.52;;;;;;;;;;5090003;28;20044;-64
2023/09/08 06:02:34;;;;;;;15.80;11.82;;;;;;;;;;5090660;28;20051;-64
2023/09/08 06:05:00;;;;;;;13.90;12.40;;;;;;;;;;5089112;28;20387;-64
2023/09/08 06:07:26;;;;;;;14.93;12.48;;;;;;;;;;5090232;28;20040;-63
2023/09/08 06:09:52;;;;;;;16.05;11.57;;;;;;;;;;5090579;28;20047;-63
2023/09/08 06:12:18;;;;;;;14.75;11.13;;;;;;;;;;5089843;28;20040;-63
2023/09/08 06:14:44;;;;;;;15.82;12.23;;;;;;;;;;5090810;28;20175;-63
2023/09/08 06:17:11;;;;;;;15.57;12.35;;;;;;;;;;5084561;28;20036;-64
2023/09/08 06:19:37;;;;;;;15.88;12.30;;;;;;;;;;5090137;28;20059;-64
2023/09/08 06:22:03;;;;;;;16.05;12.52;;;;;;;;;;5090336;28;20494;-63
2023/09/08 06:24:29;;;;;;;17.60;12.38;;;;;;;;;;5090904;28;20047;-63
2023/09/08 06:26:55;;;;;;;14.15;11.52;;;;;;;;;;5074954;28;22020;-64
2023/09/08 06:29:21;;;;;;;15.43;11.77;;;;;;;;;;5093125;28;20059;-63
2023/09/08 06:31:47;;;;;;;17.50;12.07;;;;;;;;;;5092649;28;20052;-63
2023/09/08 06:34:13;;;;;;;15.77;11.95;;;;;;;;;;5088056;28;20051;-63
2023/09/08 06:36:39;;;;;;;14.70;11.70;;;;;;;;;;5088865;28;20109;-63
2023/09/08 06:39:05;;;;;;;15.05;11.70;;;;;;;;;;5092650;28;20097;-64
2023/09/08 06:41:31;;;;;;;13.65;11.32;;;;;;;;;;5093438;28;20032;-63
2023/09/08 06:43:57;;;;;;;17.00;12.90;;;;;;;;;;5092936;28;20127;-63
2023/09/08 06:46:23;;;;;;;14.07;11.50;;;;;;;;;;5088042;28;20065;-64
2023/09/08 06:48:49;;;;;;;17.38;11.63;;;;;;;;;;5088164;28;20044;-63
2023/09/08 06:51:15;;;;;;;14.20;11.73;;;;;;;;;;5093142;28;20119;-63
2023/09/08 06:53:43;;;;;;;14.20;11.85;;;;;;;;;;5092790;28;20048;-63
2023/09/08 06:56:09;;;;;;;17.10;12.20;;;;;;;;;;5092203;28;20043;-63
2023/09/08 06:58:35;;;;;;;17.83;13.63;;;;;;;;;;5087006;28;20044;-63
2023/09/08 07:01:01;;;;;;;14.27;11.35;;;;;;;;;;5076806;28;20040;-63
2023/09/08 07:03:27;;;;;;;14.40;11.55;;;;;;;;;;5092607;28;20135;-63
2023/09/08 07:05:53;;;;;;;13.35;10.95;;;;;;;;;;5092810;28;20050;-63
2023/09/08 07:08:19;;;;;;;15.68;11.95;;;;;;;;;;5087557;28;20087;-63
2023/09/08 07:10:45;;;;;;;13.20;11.50;;;;;;;;;;5083287;28;20044;-63
2023/09/08 07:13:12;;;;;;;15.93;12.15;;;;;;;;;;5093470;28;20052;-63
2023/09/08 07:15:38;;;;;;;14.57;11.80;;;;;;;;;;5087445;28;20043;-63
2023/09/08 07:18:04;;;;;;;15.73;12.00;;;;;;;;;;5072753;28;20085;-63
2023/09/08 07:20:30;;;;;;;15.07;11.63;;;;;;;;;;5092273;28;20119;-63
2023/09/08 07:22:56;;;;;;;17.55;11.13;;;;;;;;;;5092223;28;20055;-62
2023/09/08 07:25:22;;;;;;;14.45;10.88;;;;;;;;;;5093294;28;20082;-62
2023/09/08 07:27:52;;;;;;;12.98;10.95;;;;;;;;;;5090317;28;20036;-63
2023/09/08 07:30:18;;;;;;;12.27;10.93;;;;;;;;;;5092015;28;20055;-63
2023/09/08 07:32:44;;;;;;;13.77;10.85;;;;;;;;;;5091955;28;20051;-62
2023/09/08 07:35:14;;;;;;;15.18;11.55;;;;;;;;;;5091831;28;20067;-63
2023/09/08 07:37:40;;;;;;;13.98;10.00;;;;;;;;;;5089465;28;20113;-62
2023/09/08 07:40:07;;;;;;;10.73;9.63;;;;;;;;;;5092007;28;20048;-64
2023/09/08 07:42:33;;;;;;;13.55;10.50;;;;;;;;;;5091608;28;20035;-64
2023/09/08 07:44:59;;;;;;;12.32;9.82;;;;;;;;;;5092219;28;20435;-64
2023/09/08 07:47:25;;;;;;;12.52;10.82;;;;;;;;;;5091219;28;20123;-63
2023/09/08 07:49:51;;;;;;;11.10;9.90;;;;;;;;;;5091449;28;20185;-63
2023/09/08 07:52:17;;;;;;;11.80;9.95;;;;;;;;;;5090706;28;20131;-63
2023/09/08 07:54:43;;;;;;;14.68;9.75;;;;;;;;;;5091424;28;20135;-63
2023/09/08 07:57:09;;;;;;;13.65;10.30;;;;;;;;;;5091609;28;20173;-63
2023/09/08 07:59:35;;;;;;;12.43;9.23;;;;;;;;;;5085517;28;20070;-63
2023/09/08 08:02:02;;;;;;;10.15;8.38;;;;;;;;;;5092190;28;20082;-64
2023/09/08 08:04:28;;;;;;;9.48;8.27;;;;;;;;;;5090788;28;20051;-64
2023/09/08 08:06:54;;;;;;;13.80;9.05;;;;;;;;;;5090094;28;20429;-64
2023/09/08 08:09:20;;;;;;;9.05;8.15;;;;;;;;;;5078450;28;20051;-65
2023/09/08 08:11:46;;;;;;;8.65;7.75;;;;;;;;;;5083211;28;20048;-66
2023/09/08 08:14:12;;;;;;;9.70;8.60;;;;;;;;;;5086538;28;20517;-66
2023/09/08 08:16:38;;;;;;;11.57;7.78;;;;;;;;;;5086152;28;20040;-64
2023/09/08 08:19:04;;;;;;;9.52;7.10;;;;;;;;;;5078332;28;20036;-63
2023/09/08 08:21:30;;;;;;;9.88;6.90;;;;;;;;;;5082949;28;20042;-63
2023/09/08 08:23:56;;;;;;;10.77;7.50;;;;;;;;;;5090589;28;20397;-64
2023/09/08 08:26:27;;;;;;;12.20;7.57;;;;;;;;;;5085105;28;20040;-62
2023/09/08 08:28:53;;;;;;;8.40;6.47;;;;;;;;;;5084693;28;20379;-64
2023/09/08 08:31:19;;;;;;;8.93;6.85;;;;;;;;;;5079436;28;20059;-63
2023/09/08 08:33:45;;;;;;;8.18;6.60;;;;;;;;;;5080074;28;20149;-62
2023/09/08 08:36:11;;;;;;;7.25;6.45;;;;;;;;;;5087173;28;20064;-63
2023/09/08 08:38:37;;;;;;;8.85;6.10;;;;;;;;;;5077620;28;20119;-62
2023/09/08 08:41:04;;;;;;;8.38;6.90;;;;;;;;;;5087973;28;20043;-63
2023/09/08 08:43:31;;;;;;;9.25;6.05;;;;;;;;;;5089881;28;20173;-63
2023/09/08 08:45:57;;;;;;;9.15;7.00;;;;;;;;;;5090254;28;20119;-64
2023/09/08 08:48:24;;;;;;;8.25;6.50;;;;;;;;;;5083426;28;20043;-64
2023/09/08 08:50:51;;;;;;;11.23;6.22;;;;;;;;;;5089905;28;20036;-64
2023/09/08 08:53:18;;;;;;;12.70;7.28;;;;;;;;;;5089273;28;20040;-64
2023/09/08 08:55:44;;;;;;;9.55;6.90;;;;;;;;;;5078305;28;20063;-64
2023/09/08 08:58:11;;;;;;;11.40;6.68;;;;;;;;;;5086999;28;20043;-64
2023/09/08 09:00:37;;;;;;;7.78;6.35;;;;;;;;;;5078195;28;20075;-64
2023/09/08 09:03:05;;;;;;;11.60;6.75;;;;;;;;;;5089415;28;20051;-64
2023/09/08 09:05:32;;;;;;;9.85;6.47;;;;;;;;;;5083653;28;20168;-64
2023/09/08 09:07:58;;;;;;;8.52;6.93;;;;;;;;;;5089509;28;20036;-63
2023/09/08 09:10:24;;;;;;;10.43;6.55;;;;;;;;;;5088751;28;20052;-64
2023/09/08 09:12:50;;;;;;;7.80;6.80;;;;;;;;;;5089046;28;20044;-63
2023/09/08 09:15:17;;;;;;;8.15;6.65;;;;;;;;;;5089063;28;20036;-63
2023/09/08 09:17:44;;;;;;;7.43;6.15;;;;;;;;;;5089734;28;20070;-64
2023/09/08 09:20:20;;;;;;;12.55;6.82;;;;;;;;;;5088280;28;20127;-63
2023/09/08 09:22:46;;;;;;;9.40;7.00;;;;;;;;;;5082457;28;20036;-63
2023/09/08 09:25:22;;;;;;;9.25;7.15;;;;;;;;;;5087307;28;20042;-64
2023/09/08 09:27:55;;;;;;;9.68;6.43;;;;;;;;;;5085297;28;20055;-64
2023/09/08 09:30:22;;;;;;;9.35;6.22;;;;;;;;;;5087862;28;20056;-63
2023/09/08 09:32:51;;;;;;;8.13;5.50;;;;;;;;;;5085267;28;20097;-64
2023/09/08 09:35:17;;;;;;;8.38;6.90;;;;;;;;;;5079052;28;20044;-63
2023/09/08 09:37:43;;;;;;;9.90;6.53;;;;;;;;;;5080621;28;20055;-64
2023/09/08 09:40:11;;;;;;;7.28;6.57;;;;;;;;;;5087848;28;20050;-63
2023/09/08 09:42:40;;;;;;;10.32;6.53;;;;;;;;;;5084800;28;20059;-63
2023/09/08 09:45:06;;;;;;;10.02;6.03;;;;;;;;;;5079276;28;20043;-63
2023/09/08 09:47:33;;;;;;;9.15;6.78;;;;;;;;;;5076001;28;20049;-63
2023/09/08 09:49:59;;;;;;;8.13;6.30;;;;;;;;;;5078459;28;20043;-64
2023/09/08 09:52:30;;;;;;;6.88;5.95;;;;;;;;;;5084704;28;20040;-64
2023/09/08 09:54:56;;;;;;;8.02;5.50;;;;;;;;;;5085382;28;20052;-64
2023/09/08 09:57:23;;;;;;;9.13;6.05;;;;;;;;;;5088788;28;20435;-63
2023/09/08 09:59:50;;;;;;;8.40;5.95;;;;;;;;;;5089362;28;20048;-64
2023/09/08 10:02:21;;;;;;;9.02;5.93;;;;;;;;;;5092384;28;20046;-64
2023/09/08 10:04:51;;;;;;;11.80;6.85;;;;;;;;;;5083116;28;20036;-63
2023/09/08 10:07:18;;;;;;;7.88;5.85;;;;;;;;;;5085212;28;20113;-65
2023/09/08 10:09:44;;;;;;;7.35;5.70;;;;;;;;;;5088476;28;20043;-64
2023/09/08 10:12:12;;;;;;;9.93;5.95;;;;;;;;;;5084104;28;20457;-63
2023/09/08 10:14:41;;;;;;;9.45;6.05;;;;;;;;;;5085654;28;20570;-64
2023/09/08 10:17:08;;;;;;;11.48;6.18;;;;;;;;;;5089178;28;20097;-64
2023/09/08 10:19:41;;;;;;;7.55;5.88;;;;;;;;;;5090259;28;20075;-64
2023/09/08 10:22:10;;;;;;;8.55;6.43;;;;;;;;;;5082402;28;20041;-64
2023/09/08 10:24:37;;;;;;;9.73;6.40;;;;;;;;;;5087550;28;20044;-64
2023/09/08 10:27:13;;;;;;;8.13;6.03;;;;;;;;;;5089648;28;20040;-64
2023/09/08 10:29:39;;;;;;;8.48;6.43;;;;;;;;;;5091913;28;20082;-65
2023/09/08 10:32:07;;;;;;;8.68;5.70;;;;;;;;;;5087778;28;20040;-65
2023/09/08 10:34:34;;;;;;;10.88;6.28;;;;;;;;;;5090099;28;20066;-65
2023/09/08 10:37:00;;;;;;;8.45;5.38;;;;;;;;;;5084750;28;20484;-65
2023/09/08 10:39:30;;;;;;;7.65;5.18;;;;;;;;;;5091315;28;20115;-65
2023/09/08 10:42:15;;;;;;;6.03;5.25;;;;;;;;;;5092069;28;20040;-65
2023/09/08 10:44:41;;;;;;;7.78;5.47;;;;;;;;;;5091017;28;20055;-65
2023/09/08 10:47:07;;;;;;;8.25;5.70;;;;;;;;;;5076683;28;20036;-65
2023/09/08 10:49:36;;;;;;;7.43;5.65;;;;;;;;;;5078598;28;20055;-65
2023/09/08 10:52:10;;;;;;;6.55;5.38;;;;;;;;;;5078109;28;20043;-64
2023/09/08 10:54:42;;;;;;;9.40;5.60;;;;;;;;;;5079642;28;20132;-65
2023/09/08 10:57:15;;;;;;;7.15;5.63;;;;;;;;;;5087448;28;20036;-64
2023/09/08 10:59:54;;;;;;;9.05;5.47;;;;;;;;;;5083530;28;20047;-64
2023/09/08 11:02:36;;;;;;;7.13;5.80;;;;;;;;;;5088954;28;20769;-64
2023/09/08 11:05:13;;;;;;;7.75;5.32;;;;;;;;;;5090755;28;20064;-64
2023/09/08 11:07:40;;;;;;;5.25;4.57;;;;;;;;;;5085671;28;20047;-64
2023/09/08 11:10:07;;;;;;;7.63;5.30;;;;;;;;;;5090897;28;20044;-63
2023/09/08 11:12:33;;;;;;;7.88;5.40;;;;;;;;;;5090858;28;20047;-64
2023/09/08 11:15:04;;;;;;;6.93;5.25;;;;;;;;;;5091065;28;20047;-65
2023/09/08 11:17:31;;;;;;;6.75;4.45;;;;;;;;;;5083159;28;20124;-65
2023/09/08 11:19:57;;;;;;;7.47;4.50;;;;;;;;;;5089882;28;20085;-64
2023/09/08 11:22:27;;;;;;;5.38;4.32;;;;;;;;;;5083712;28;20060;-64
2023/09/08 11:24:56;;;;;;;6.80;4.72;;;;;;;;;;5088517;28;20048;-64
2023/09/08 11:27:22;;;;;;;7.18;4.05;;;;;;;;;;5088818;28;20040;-64
2023/09/08 11:29:49;;;;;;;5.43;4.40;;;;;;;;;;5079274;28;20156;-64
2023/09/08 11:32:15;;;;;;;8.18;4.90;;;;;;;;;;5072605;28;20045;-64
2023/09/08 11:34:41;;;;;;;7.22;4.57;;;;;;;;;;5092416;28;20490;-64
2023/09/08 11:37:12;;;;;;;5.25;4.30;;;;;;;;;;5085631;28;20047;-65
2023/09/08 11:39:39;;;;;;;7.28;4.38;;;;;;;;;;5076743;28;20055;-64
2023/09/08 11:42:06;;;;;;;6.80;4.25;;;;;;;;;;5092647;28;20036;-64
2023/09/08 11:44:32;;;;;;;5.35;4.13;;;;;;;;;;5091763;28;20047;-64
2023/09/08 11:46:59;;;;;;;5.93;4.00;;;;;;;;;;5080516;28;20598;-63
2023/09/08 11:49:25;;;;;;;5.25;4.25;;;;;;;;;;5079301;28;20047;-63
2023/09/08 11:51:51;;;;;;;5.70;4.82;;;;;;;;;;5086679;28;20047;-64
2023/09/08 11:54:18;;;;;;;6.72;4.43;;;;;;;;;;5091156;28;20040;-64
2023/09/08 11:56:45;;;;;;;5.30;3.90;;;;;;;;;;5091681;28;20630;-63
2023/09/08 11:59:12;;;;;;;6.10;4.18;;;;;;;;;;5090111;28;20044;-64
2023/09/08 12:01:38;;;;;;;6.40;4.00;;;;;;;;;;5089969;28;20042;-64
2023/09/08 12:04:04;;;;;;;4.57;4.07;;;;;;;;;;5082768;28;20048;-65
2023/09/08 12:06:32;;;;;;;5.78;4.18;;;;;;;;;;5087088;28;20040;-65
2023/09/08 12:09:02;;;;;;;12.18;4.53;;;;;;;;;;5089836;28;20036;-64
2023/09/08 12:11:35;;;;;;;5.05;4.00;;;;;;;;;;5086230;28;20040;-64
2023/09/08 12:14:01;;;;;;;5.55;4.25;;;;;;;;;;5089576;28;20098;-63
2023/09/08 12:16:27;;;;;;;7.88;3.88;;;;;;;;;;5083826;28;20036;-64
2023/09/08 12:18:55;;;;;;;5.00;4.07;;;;;;;;;;5084178;28;20048;-64
2023/09/08 12:21:21;;;;;;;7.55;3.90;;;;;;;;;;5084667;28;20043;-64
2023/09/08 12:23:50;;;;;;;8.48;4.30;;;;;;;;;;5088412;28;20036;-64
2023/09/08 12:26:16;;;;;;;6.60;3.97;;;;;;;;;;5087001;28;20040;-65
2023/09/08 12:28:43;;;;;;;9.30;3.60;;;;;;;;;;5071575;28;20119;-64
2023/09/08 12:31:10;;;;;;;6.45;4.15;;;;;;;;;;5080940;28;20128;-65
2023/09/08 12:33:36;;;;;;;4.78;3.60;;;;;;;;;;5086985;28;20152;-64
2023/09/08 12:36:14;;;;;;;5.63;4.45;;;;;;;;;;5083120;28;20032;-64
2023/09/08 12:38:40;;;;;;;5.65;4.15;;;;;;;;;;5082643;28;20389;-65
2023/09/08 12:41:06;;;;;;;5.85;3.90;;;;;;;;;;5082680;28;20070;-66
2023/09/08 12:43:32;;;;;;;5.22;3.97;;;;;;;;;;5091999;28;20043;-65
2023/09/08 12:45:58;;;;;;;5.00;3.90;;;;;;;;;;5091488;28;20043;-65
2023/09/08 12:48:24;;;;;;;8.77;4.03;;;;;;;;;;5092048;28;20036;-64
2023/09/08 12:50:50;;;;;;;4.32;3.90;;;;;;;;;;5091718;28;20040;-64
2023/09/08 12:53:21;;;;;;;4.93;4.03;;;;;;;;;;5091226;28;20089;-65
2023/09/08 12:55:47;;;;;;;6.07;4.00;;;;;;;;;;5092048;28;20063;-65
2023/09/08 12:58:13;;;;;;;5.07;3.60;;;;;;;;;;5091605;28;20040;-65
2023/09/08 13:00:39;;;;;;;4.32;3.55;;;;;;;;;;5091218;28;20494;-65
2023/09/08 13:03:05;;;;;;;4.65;3.72;;;;;;;;;;5091673;28;20040;-65
2023/09/08 13:05:32;;;;;;;6.68;4.00;;;;;;;;;;5091531;28;20093;-64
2023/09/08 13:07:58;;;;;;;5.03;3.80;;;;;;;;;;5091509;28;20044;-64
2023/09/08 13:10:25;;;;;;;4.57;3.47;;;;;;;;;;5091294;28;20112;-64
2023/09/08 13:12:51;;;;;;;5.60;3.35;;;;;;;;;;5091506;28;20401;-66
2023/09/08 13:15:17;;;;;;;5.32;3.78;;;;;;;;;;5090972;28;20055;-66
2023/09/08 13:17:43;;;;;;;4.35;3.67;;;;;;;;;;5073264;28;20048;-66
2023/09/08 13:20:09;;;;;;;5.72;3.67;;;;;;;;;;5071435;28;20079;-66
2023/09/08 13:22:35;;;;;;;5.78;3.90;;;;;;;;;;5071089;28;20115;-67
2023/09/08 13:25:01;;;;;;;4.15;3.40;;;;;;;;;;5071362;28;20535;-66
2023/09/08 13:27:27;;;;;;;6.13;3.72;;;;;;;;;;5071562;28;20474;-66
2023/09/08 13:30:08;;;;;;;5.15;3.90;;;;;;;;;;5070944;28;20051;-66
2023/09/08 13:32:34;;;;;;;7.68;3.85;;;;;;;;;;5071149;28;20087;-66
2023/09/08 13:35:00;;;;;;;3.95;3.28;;;;;;;;;;5074458;28;20071;-66
2023/09/08 13:37:26;;;;;;;4.95;3.50;;;;;;;;;;5075039;28;20036;-66
2023/09/08 13:39:52;;;;;;;6.28;3.95;;;;;;;;;;5075555;28;20044;-66
2023/09/08 13:42:18;;;;;;;7.35;3.53;;;;;;;;;;5075523;28;20072;-67
2023/09/08 13:44:45;;;;;;;7.95;4.10;;;;;;;;;;5075093;28;20041;-67
2023/09/08 13:47:11;;;;;;;7.28;3.65;;;;;;;;;;5075187;28;20167;-66
2023/09/08 13:49:37;;;;;;;5.00;3.63;;;;;;;;;;5075324;28;20041;-66
2023/09/08 13:52:03;;;;;;;4.30;3.80;;;;;;;;;;5074797;28;20060;-66
2023/09/08 13:54:29;;;;;;;5.18;3.70;;;;;;;;;;5075378;28;20120;-66
2023/09/08 13:56:59;;;;;;;5.85;3.33;;;;;;;;;;5075332;28;20475;-66
2023/09/08 13:59:26;;;;;;;7.13;3.90;;;;;;;;;;5068906;28;20483;-67
2023/09/08 14:01:53;;;;;;;4.53;3.83;;;;;;;;;;5074580;28;20383;-67
2023/09/08 14:04:19;;;;;;;8.02;4.05;;;;;;;;;;5074641;28;20479;-67
2023/09/08 17:51:29;;;;;;;6.28;5.53;;;;;;;;;;5108056;27;20319;-62
2023/09/08 17:53:55;;;;;;;6.55;5.07;;;;;;;;;;5087846;28;20052;-61
2023/09/08 17:56:21;;;;;;;6.22;5.15;;;;;;;;;;5087876;28;20040;-62
2023/09/08 17:58:47;;;;;;;9.45;5.07;;;;;;;;;;5087864;28;20357;-62
2023/09/08 18:01:13;;;;;;;6.95;4.88;;;;;;;;;;5087842;28;20040;-62
2023/09/08 18:03:40;;;;;;;7.53;5.10;;;;;;;;;;5087989;28;20420;-62
2023/09/08 18:06:09;;;;;;;8.75;5.28;;;;;;;;;;5088027;28;20076;-62
2023/09/08 18:08:35;;;;;;;7.32;5.47;;;;;;;;;;5088289;28;20048;-62
2023/09/08 18:11:04;;;;;;;6.93;5.45;;;;;;;;;;5087722;28;20059;-61
2023/09/08 18:13:30;;;;;;;7.57;5.57;;;;;;;;;;5087788;28;20044;-61